sensor_id;sensor_type;location;lat;lon;timestamp;temperature;humidity
16479;DHT22;8350;52.316;10.530;2023-02-26T00:01:23;-1.00;1.00
16479;DHT22;8350;52.316;10.530;2023-02-26T00:03:53;-1.00;1.00
16479;DHT22;8350;52.316;10.530;2023-02-26T00:06:20;-1.00;1.00
16479;DHT22;8350;52.316;10.530;2023-02-26T00:08:47;-1.00;1.00
16479;DHT22;8350;52.316;10.530;2023-02-26T00:11:17;-1.00;1.00
16479;DHT22;8350;52.316;10.530;2023-02-26T00:13:45;-1.00;1.00
16479;DHT22;8350;52.316;10.530;2023-02-26T00:16:20;-1.00;1.00
16479;DHT22;8350;52.316;10.530;2023-02-26T00:18:49;-1.00;1.00
16479;DHT22;8350;52.316;10.530;2023-02-26T00:21:20;-1.00;1.00
16479;DHT22;8350;52.316;10.530;2023-02-26T00:23:48;-1.00;1.00
16479;DHT22;8350;52.316;10.530;2023-02-26T00:26:15;-1.00;1.00
16479;DHT22;8350;52.316;10.530;2023-02-26T00:28:42;-1.00;1.00
16479;DHT22;8350;52.316;10.530;2023-02-26T00:31:10;-1.00;1.00
16479;DHT22;8350;52.316;10.530;2023-02-26T00:33:37;-1.00;1.00
16479;DHT22;8350;52.316;10.530;2023-02-26T00:36:12;-1.00;1.00
16479;DHT22;8350;52.316;10.530;2023-02-26T00:38:52;-1.10;1.00
16479;DHT22;8350;52.316;10.530;2023-02-26T00:41:25;-1.10;1.00
16479;DHT22;8350;52.316;10.530;2023-02-26T00:43:53;-1.10;1.00
16479;DHT22;8350;52.316;10.530;2023-02-26T00:46:26;-1.10;1.00
16479;DHT22;8350;52.316;10.530;2023-02-26T00:48:58;-1.20;2.20
16479;DHT22;8350;52.316;10.530;2023-02-26T00:51:30;-1.20;9.40
16479;DHT22;8350;52.316;10.530;2023-02-26T00:54:04;-1.20;13.30
16479;DHT22;8350;52.316;10.530;2023-02-26T00:56:33;-1.30;16.40
16479;DHT22;8350;52.316;10.530;2023-02-26T00:58:59;-1.30;18.30
16479;DHT22;8350;52.316;10.530;2023-02-26T01:01:26;-1.30;22.00
16479;DHT22;8350;52.316;10.530;2023-02-26T01:03:53;-1.30;24.90
16479;DHT22;8350;52.316;10.530;2023-02-26T01:06:21;-1.30;27.30
16479;DHT22;8350;52.316;10.530;2023-02-26T01:08:54;-1.30;29.40
16479;DHT22;8350;52.316;10.530;2023-02-26T01:11:25;-1.30;30.00
16479;DHT22;8350;52.316;10.530;2023-02-26T01:13:53;-1.30;28.60
16479;DHT22;8350;52.316;10.530;2023-02-26T01:16:21;-1.40;25.60
16479;DHT22;8350;52.316;10.530;2023-02-26T01:18:55;-1.40;24.20
16479;DHT22;8350;52.316;10.530;2023-02-26T01:21:27;-1.40;25.10
16479;DHT22;8350;52.316;10.530;2023-02-26T01:23:56;-1.40;25.00
16479;DHT22;8350;52.316;10.530;2023-02-26T01:26:27;-1.40;25.20
16479;DHT22;8350;52.316;10.530;2023-02-26T01:28:55;-1.40;24.30
16479;DHT22;8350;52.316;10.530;2023-02-26T01:31:39;-1.40;22.90
16479;DHT22;8350;52.316;10.530;2023-02-26T01:34:10;-1.50;21.80
16479;DHT22;8350;52.316;10.530;2023-02-26T01:36:43;-1.50;24.20
16479;DHT22;8350;52.316;10.530;2023-02-26T01:39:21;-1.50;26.00
16479;DHT22;8350;52.316;10.530;2023-02-26T01:41:54;-1.50;27.90
16479;DHT22;8350;52.316;10.530;2023-02-26T01:44:26;-1.50;29.20
16479;DHT22;8350;52.316;10.530;2023-02-26T01:47:04;-1.50;31.70
16479;DHT22;8350;52.316;10.530;2023-02-26T01:49:32;-1.50;32.80
16479;DHT22;8350;52.316;10.530;2023-02-26T01:52:00;-1.50;34.50
16479;DHT22;8350;52.316;10.530;2023-02-26T01:54:29;-1.50;35.10
16479;DHT22;8350;52.316;10.530;2023-02-26T01:57:00;-1.50;36.10
16479;DHT22;8350;52.316;10.530;2023-02-26T01:59:30;-1.50;38.10
16479;DHT22;8350;52.316;10.530;2023-02-26T02:01:59;-1.40;39.40
16479;DHT22;8350;52.316;10.530;2023-02-26T02:04:29;-1.40;38.70
16479;DHT22;8350;52.316;10.530;2023-02-26T02:06:57;-1.40;37.80
16479;DHT22;8350;52.316;10.530;2023-02-26T02:09:24;-1.40;36.10
16479;DHT22;8350;52.316;10.530;2023-02-26T02:12:07;-1.40;35.00
16479;DHT22;8350;52.316;10.530;2023-02-26T02:14:43;-1.40;36.50
16479;DHT22;8350;52.316;10.530;2023-02-26T02:17:18;-1.30;38.90
16479;DHT22;8350;52.316;10.530;2023-02-26T02:20:12;-1.20;38.70
16479;DHT22;8350;52.316;10.530;2023-02-26T02:22:59;-1.20;35.80
16479;DHT22;8350;52.316;10.530;2023-02-26T02:25:54;-1.10;34.10
16479;DHT22;8350;52.316;10.530;2023-02-26T02:28:34;-1.10;29.90
16479;DHT22;8350;52.316;10.530;2023-02-26T02:31:07;-1.10;27.90
16479;DHT22;8350;52.316;10.530;2023-02-26T02:33:43;-1.00;25.10
16479;DHT22;8350;52.316;10.530;2023-02-26T02:36:16;-1.00;23.00
16479;DHT22;8350;52.316;10.530;2023-02-26T02:38:47;-1.00;21.50
16479;DHT22;8350;52.316;10.530;2023-02-26T02:41:18;-1.00;21.60
16479;DHT22;8350;52.316;10.530;2023-02-26T02:43:47;-1.00;20.30
16479;DHT22;8350;52.316;10.530;2023-02-26T02:46:19;-1.00;20.20
16479;DHT22;8350;52.316;10.530;2023-02-26T02:48:52;-1.00;22.30
16479;DHT22;8350;52.316;10.530;2023-02-26T02:51:33;-0.90;19.20
16479;DHT22;8350;52.316;10.530;2023-02-26T02:54:05;-0.90;17.10
16479;DHT22;8350;52.316;10.530;2023-02-26T02:56:36;-0.90;15.70
16479;DHT22;8350;52.316;10.530;2023-02-26T02:59:12;-0.90;14.40
16479;DHT22;8350;52.316;10.530;2023-02-26T03:01:43;-0.90;12.20
16479;DHT22;8350;52.316;10.530;2023-02-26T03:04:13;-0.90;11.20
16479;DHT22;8350;52.316;10.530;2023-02-26T03:06:41;-0.90;9.10
16479;DHT22;8350;52.316;10.530;2023-02-26T03:09:11;-0.90;9.20
16479;DHT22;8350;52.316;10.530;2023-02-26T03:11:38;-0.90;10.50
16479;DHT22;8350;52.316;10.530;2023-02-26T03:14:05;-0.80;4.60
16479;DHT22;8350;52.316;10.530;2023-02-26T03:16:47;-0.80;2.10
16479;DHT22;8350;52.316;10.530;2023-02-26T03:19:19;-0.80;2.10
16479;DHT22;8350;52.316;10.530;2023-02-26T03:21:52;-0.80;4.20
16479;DHT22;8350;52.316;10.530;2023-02-26T03:24:28;-0.80;6.60
16479;DHT22;8350;52.316;10.530;2023-02-26T03:27:00;-0.80;3.60
16479;DHT22;8350;52.316;10.530;2023-02-26T03:29:37;-0.80;3.90
16479;DHT22;8350;52.316;10.530;2023-02-26T03:32:09;-0.80;3.70
16479;DHT22;8350;52.316;10.530;2023-02-26T03:34:40;-0.80;3.80
16479;DHT22;8350;52.316;10.530;2023-02-26T03:37:14;-0.80;3.60
16479;DHT22;8350;52.316;10.530;2023-02-26T03:39:49;-0.70;5.40
16479;DHT22;8350;52.316;10.530;2023-02-26T03:42:21;-0.80;3.80
16479;DHT22;8350;52.316;10.530;2023-02-26T03:44:53;-0.80;2.60
16479;DHT22;8350;52.316;10.530;2023-02-26T03:47:22;-0.70;2.80
16479;DHT22;8350;52.316;10.530;2023-02-26T03:49:55;-0.70;1.00
16479;DHT22;8350;52.316;10.530;2023-02-26T03:52:26;-0.70;2.80
16479;DHT22;8350;52.316;10.530;2023-02-26T03:55:03;-0.70;1.20
16479;DHT22;8350;52.316;10.530;2023-02-26T03:57:41;-0.70;1.00
16479;DHT22;8350;52.316;10.530;2023-02-26T04:00:10;-0.70;1.00
16479;DHT22;8350;52.316;10.530;2023-02-26T04:02:42;-0.70;3.20
16479;DHT22;8350;52.316;10.530;2023-02-26T04:05:15;-0.70;6.70
16479;DHT22;8350;52.316;10.530;2023-02-26T04:07:44;-0.70;8.10
16479;DHT22;8350;52.316;10.530;2023-02-26T04:10:14;-0.70;5.30
16479;DHT22;8350;52.316;10.530;2023-02-26T04:12:42;-0.70;7.30
16479;DHT22;8350;52.316;10.530;2023-02-26T04:15:10;-0.70;7.60
16479;DHT22;8350;52.316;10.530;2023-02-26T04:17:56;-0.70;7.00
16479;DHT22;8350;52.316;10.530;2023-02-26T04:20:23;-0.70;9.70
16479;DHT22;8350;52.316;10.530;2023-02-26T04:22:50;-0.70;11.40
16479;DHT22;8350;52.316;10.530;2023-02-26T04:25:17;-0.70;6.20
16479;DHT22;8350;52.316;10.530;2023-02-26T04:27:43;-0.70;3.80
16479;DHT22;8350;52.316;10.530;2023-02-26T04:30:11;-0.70;4.30
16479;DHT22;8350;52.316;10.530;2023-02-26T04:32:38;-0.70;1.00
16479;DHT22;8350;52.316;10.530;2023-02-26T04:35:07;-0.70;1.00
16479;DHT22;8350;52.316;10.530;2023-02-26T04:37:33;-0.60;1.00
16479;DHT22;8350;52.316;10.530;2023-02-26T04:40:00;-0.60;1.00
16479;DHT22;8350;52.316;10.530;2023-02-26T04:42:30;-0.60;1.00
16479;DHT22;8350;52.316;10.530;2023-02-26T04:44:57;-0.60;1.00
16479;DHT22;8350;52.316;10.530;2023-02-26T04:47:23;-0.60;1.00
16479;DHT22;8350;52.316;10.530;2023-02-26T04:49:50;-0.60;1.00
16479;DHT22;8350;52.316;10.530;2023-02-26T04:52:18;-0.60;1.00
16479;DHT22;8350;52.316;10.530;2023-02-26T04:54:46;-0.60;1.00
16479;DHT22;8350;52.316;10.530;2023-02-26T04:57:12;-0.60;1.00
16479;DHT22;8350;52.316;10.530;2023-02-26T04:59:39;-0.60;1.00
16479;DHT22;8350;52.316;10.530;2023-02-26T05:02:06;-0.60;1.00
16479;DHT22;8350;52.316;10.530;2023-02-26T05:04:33;-0.60;1.00
16479;DHT22;8350;52.316;10.530;2023-02-26T05:07:00;-0.60;1.00
16479;DHT22;8350;52.316;10.530;2023-02-26T05:09:28;-0.60;1.00
16479;DHT22;8350;52.316;10.530;2023-02-26T05:11:55;-0.60;1.00
16479;DHT22;8350;52.316;10.530;2023-02-26T05:14:22;-0.60;1.00
16479;DHT22;8350;52.316;10.530;2023-02-26T05:16:48;-0.60;1.00
16479;DHT22;8350;52.316;10.530;2023-02-26T05:19:15;-0.60;1.00
16479;DHT22;8350;52.316;10.530;2023-02-26T05:21:42;-0.60;1.00
16479;DHT22;8350;52.316;10.530;2023-02-26T05:24:09;-0.60;1.00
16479;DHT22;8350;52.316;10.530;2023-02-26T05:26:37;-0.60;1.00
16479;DHT22;8350;52.316;10.530;2023-02-26T05:29:04;-0.60;1.00
16479;DHT22;8350;52.316;10.530;2023-02-26T05:31:31;-0.60;1.00
16479;DHT22;8350;52.316;10.530;2023-02-26T05:33:58;-0.70;1.00
16479;DHT22;8350;52.316;10.530;2023-02-26T05:36:25;-0.70;1.00
16479;DHT22;8350;52.316;10.530;2023-02-26T05:38:52;-0.70;1.00
16479;DHT22;8350;52.316;10.530;2023-02-26T05:41:19;-0.70;1.00
16479;DHT22;8350;52.316;10.530;2023-02-26T05:43:47;-0.80;1.00
16479;DHT22;8350;52.316;10.530;2023-02-26T05:46:13;-0.80;1.00
16479;DHT22;8350;52.316;10.530;2023-02-26T05:48:40;-0.80;1.00
16479;DHT22;8350;52.316;10.530;2023-02-26T05:51:07;-0.90;1.00
16479;DHT22;8350;52.316;10.530;2023-02-26T05:53:37;-0.90;1.00
16479;DHT22;8350;52.316;10.530;2023-02-26T05:56:04;-0.90;1.00
16479;DHT22;8350;52.316;10.530;2023-02-26T05:58:31;-1.00;1.00
16479;DHT22;8350;52.316;10.530;2023-02-26T06:00:59;-1.00;1.00
16479;DHT22;8350;52.316;10.530;2023-02-26T06:03:26;-1.00;1.00
16479;DHT22;8350;52.316;10.530;2023-02-26T06:05:53;-1.00;1.00
16479;DHT22;8350;52.316;10.530;2023-02-26T06:08:20;-1.10;1.00
16479;DHT22;8350;52.316;10.530;2023-02-26T06:10:49;-1.10;1.00
16479;DHT22;8350;52.316;10.530;2023-02-26T06:13:15;-1.00;1.00
16479;DHT22;8350;52.316;10.530;2023-02-26T06:15:42;-1.10;1.00
16479;DHT22;8350;52.316;10.530;2023-02-26T06:18:11;-1.10;1.00
16479;DHT22;8350;52.316;10.530;2023-02-26T06:20:40;-1.10;1.00
16479;DHT22;8350;52.316;10.530;2023-02-26T06:23:07;-1.10;1.00
16479;DHT22;8350;52.316;10.530;2023-02-26T06:25:34;-1.20;1.00
16479;DHT22;8350;52.316;10.530;2023-02-26T06:28:00;-1.10;1.00
16479;DHT22;8350;52.316;10.530;2023-02-26T06:30:27;-1.20;1.00
16479;DHT22;8350;52.316;10.530;2023-02-26T06:32:54;-1.10;1.00
16479;DHT22;8350;52.316;10.530;2023-02-26T06:35:23;-1.20;1.00
16479;DHT22;8350;52.316;10.530;2023-02-26T06:37:50;-1.10;1.00
16479;DHT22;8350;52.316;10.530;2023-02-26T06:40:17;-1.10;1.00
16479;DHT22;8350;52.316;10.530;2023-02-26T06:42:44;-1.10;1.00
16479;DHT22;8350;52.316;10.530;2023-02-26T06:45:10;-1.10;1.00
16479;DHT22;8350;52.316;10.530;2023-02-26T06:47:37;-1.10;1.00
16479;DHT22;8350;52.316;10.530;2023-02-26T06:50:05;-1.00;1.00
16479;DHT22;8350;52.316;10.530;2023-02-26T06:52:33;-0.90;1.00
16479;DHT22;8350;52.316;10.530;2023-02-26T06:55:08;-0.40;1.00
16479;DHT22;8350;52.316;10.530;2023-02-26T06:57:41;0.20;1.00
16479;DHT22;8350;52.316;10.530;2023-02-26T07:00:08;0.80;1.00
16479;DHT22;8350;52.316;10.530;2023-02-26T07:02:35;1.30;1.00
16479;DHT22;8350;52.316;10.530;2023-02-26T07:05:03;1.60;1.00
16479;DHT22;8350;52.316;10.530;2023-02-26T07:07:30;1.70;1.00
16479;DHT22;8350;52.316;10.530;2023-02-26T07:09:58;1.50;1.00
16479;DHT22;8350;52.316;10.530;2023-02-26T07:12:25;1.90;1.00
16479;DHT22;8350;52.316;10.530;2023-02-26T07:14:52;1.80;1.00
16479;DHT22;8350;52.316;10.530;2023-02-26T07:17:19;1.70;1.00
16479;DHT22;8350;52.316;10.530;2023-02-26T07:19:52;1.40;1.00
16479;DHT22;8350;52.316;10.530;2023-02-26T07:22:19;1.20;1.00
16479;DHT22;8350;52.316;10.530;2023-02-26T07:24:52;1.00;1.00
16479;DHT22;8350;52.316;10.530;2023-02-26T07:27:21;0.80;1.00
16479;DHT22;8350;52.316;10.530;2023-02-26T07:29:49;0.80;1.00
16479;DHT22;8350;52.316;10.530;2023-02-26T07:32:15;0.80;1.00
16479;DHT22;8350;52.316;10.530;2023-02-26T07:34:42;0.70;1.00
16479;DHT22;8350;52.316;10.530;2023-02-26T07:37:09;0.70;1.00
16479;DHT22;8350;52.316;10.530;2023-02-26T07:39:36;0.70;1.00
16479;DHT22;8350;52.316;10.530;2023-02-26T07:42:03;0.70;1.00
16479;DHT22;8350;52.316;10.530;2023-02-26T07:44:31;0.40;1.00
16479;DHT22;8350;52.316;10.530;2023-02-26T07:46:58;0.40;1.00
16479;DHT22;8350;52.316;10.530;2023-02-26T07:49:25;0.40;1.00
16479;DHT22;8350;52.316;10.530;2023-02-26T07:51:52;0.40;1.00
16479;DHT22;8350;52.316;10.530;2023-02-26T07:54:19;0.50;1.00
16479;DHT22;8350;52.316;10.530;2023-02-26T07:56:48;0.50;1.00
16479;DHT22;8350;52.316;10.530;2023-02-26T07:59:16;0.60;1.00
16479;DHT22;8350;52.316;10.530;2023-02-26T08:01:44;0.70;1.00
16479;DHT22;8350;52.316;10.530;2023-02-26T08:04:11;0.80;1.00
16479;DHT22;8350;52.316;10.530;2023-02-26T08:06:38;0.80;1.00
16479;DHT22;8350;52.316;10.530;2023-02-26T08:09:05;0.80;1.00
16479;DHT22;8350;52.316;10.530;2023-02-26T08:11:32;0.80;1.00
16479;DHT22;8350;52.316;10.530;2023-02-26T08:16:44;0.80;1.00
16479;DHT22;8350;52.316;10.530;2023-02-26T08:19:10;0.70;1.00
16479;DHT22;8350;52.316;10.530;2023-02-26T08:21:37;0.80;1.00
16479;DHT22;8350;52.316;10.530;2023-02-26T08:24:04;0.90;1.00
16479;DHT22;8350;52.316;10.530;2023-02-26T08:26:35;0.90;1.00
16479;DHT22;8350;52.316;10.530;2023-02-26T08:29:03;1.00;1.00
16479;DHT22;8350;52.316;10.530;2023-02-26T08:31:30;1.10;1.00
16479;DHT22;8350;52.316;10.530;2023-02-26T08:34:00;1.00;1.00
16479;DHT22;8350;52.316;10.530;2023-02-26T08:36:27;1.10;1.00
16479;DHT22;8350;52.316;10.530;2023-02-26T08:38:54;1.10;1.00
16479;DHT22;8350;52.316;10.530;2023-02-26T08:41:22;1.30;1.00
16479;DHT22;8350;52.316;10.530;2023-02-26T08:43:51;1.30;1.00
16479;DHT22;8350;52.316;10.530;2023-02-26T08:46:18;1.30;1.00
16479;DHT22;8350;52.316;10.530;2023-02-26T08:48:45;1.40;1.00
16479;DHT22;8350;52.316;10.530;2023-02-26T08:51:13;1.50;1.00
16479;DHT22;8350;52.316;10.530;2023-02-26T08:53:40;1.40;1.00
16479;DHT22;8350;52.316;10.530;2023-02-26T08:56:09;1.30;1.00
16479;DHT22;8350;52.316;10.530;2023-02-26T08:58:36;1.40;1.00
16479;DHT22;8350;52.316;10.530;2023-02-26T09:01:03;1.40;1.00
16479;DHT22;8350;52.316;10.530;2023-02-26T09:03:30;1.40;1.00
16479;DHT22;8350;52.316;10.530;2023-02-26T09:05:57;1.40;1.00
16479;DHT22;8350;52.316;10.530;2023-02-26T09:08:25;1.50;1.00
16479;DHT22;8350;52.316;10.530;2023-02-26T09:10:52;1.50;1.00
16479;DHT22;8350;52.316;10.530;2023-02-26T09:13:19;1.60;1.00
16479;DHT22;8350;52.316;10.530;2023-02-26T09:15:47;1.60;1.00
16479;DHT22;8350;52.316;10.530;2023-02-26T09:18:14;1.70;99.90
16479;DHT22;8350;52.316;10.530;2023-02-26T09:20:41;1.70;99.90
16479;DHT22;8350;52.316;10.530;2023-02-26T09:23:09;1.70;99.90
16479;DHT22;8350;52.316;10.530;2023-02-26T09:25:38;1.80;99.90
16479;DHT22;8350;52.316;10.530;2023-02-26T09:28:05;1.90;99.90
16479;DHT22;8350;52.316;10.530;2023-02-26T09:30:32;2.00;99.90
16479;DHT22;8350;52.316;10.530;2023-02-26T09:32:59;2.10;99.90
16479;DHT22;8350;52.316;10.530;2023-02-26T09:35:25;2.10;99.90
16479;DHT22;8350;52.316;10.530;2023-02-26T09:37:52;2.00;99.90
16479;DHT22;8350;52.316;10.530;2023-02-26T09:40:25;2.00;99.90
16479;DHT22;8350;52.316;10.530;2023-02-26T09:43:07;2.20;99.90
16479;DHT22;8350;52.316;10.530;2023-02-26T09:45:41;2.20;99.90
16479;DHT22;8350;52.316;10.530;2023-02-26T09:48:11;2.20;99.90
16479;DHT22;8350;52.316;10.530;2023-02-26T09:50:43;2.10;99.90
16479;DHT22;8350;52.316;10.530;2023-02-26T09:53:16;2.10;99.90
16479;DHT22;8350;52.316;10.530;2023-02-26T09:55:47;2.20;99.90
16479;DHT22;8350;52.316;10.530;2023-02-26T09:58:20;2.10;99.90
16479;DHT22;8350;52.316;10.530;2023-02-26T10:00:55;2.10;99.90
16479;DHT22;8350;52.316;10.530;2023-02-26T10:03:29;2.20;99.90
16479;DHT22;8350;52.316;10.530;2023-02-26T10:06:17;2.20;99.90
16479;DHT22;8350;52.316;10.530;2023-02-26T10:08:56;2.30;99.90
16479;DHT22;8350;52.316;10.530;2023-02-26T10:11:28;2.40;98.10
16479;DHT22;8350;52.316;10.530;2023-02-26T10:14:01;2.40;99.90
16479;DHT22;8350;52.316;10.530;2023-02-26T10:16:32;2.40;99.90
16479;DHT22;8350;52.316;10.530;2023-02-26T10:19:03;2.40;99.90
16479;DHT22;8350;52.316;10.530;2023-02-26T10:21:35;2.40;43.80
16479;DHT22;8350;52.316;10.530;2023-02-26T10:24:05;2.30;1.00
16479;DHT22;8350;52.316;10.530;2023-02-26T10:26:38;2.20;5.40
16479;DHT22;8350;52.316;10.530;2023-02-26T10:29:16;2.20;1.00
16479;DHT22;8350;52.316;10.530;2023-02-26T10:31:54;2.30;1.00
16479;DHT22;8350;52.316;10.530;2023-02-26T10:34:28;2.40;1.00
16479;DHT22;8350;52.316;10.530;2023-02-26T10:37:03;2.40;1.00
16479;DHT22;8350;52.316;10.530;2023-02-26T10:39:40;2.60;1.00
16479;DHT22;8350;52.316;10.530;2023-02-26T10:42:13;2.60;1.00
16479;DHT22;8350;52.316;10.530;2023-02-26T10:44:48;2.70;1.00
16479;DHT22;8350;52.316;10.530;2023-02-26T10:47:23;2.80;1.00
16479;DHT22;8350;52.316;10.530;2023-02-26T10:49:55;2.80;1.00
16479;DHT22;8350;52.316;10.530;2023-02-26T10:52:27;2.80;99.90
16479;DHT22;8350;52.316;10.530;2023-02-26T10:55:28;2.90;99.90
16479;DHT22;8350;52.316;10.530;2023-02-26T10:58:02;3.30;1.00
16479;DHT22;8350;52.316;10.530;2023-02-26T11:00:31;3.00;99.90
16479;DHT22;8350;52.316;10.530;2023-02-26T11:03:00;2.90;99.90
16479;DHT22;8350;52.316;10.530;2023-02-26T11:05:30;3.00;1.00
16479;DHT22;8350;52.316;10.530;2023-02-26T11:08:00;3.10;1.00
16479;DHT22;8350;52.316;10.530;2023-02-26T11:10:38;3.10;1.00
16479;DHT22;8350;52.316;10.530;2023-02-26T11:13:06;3.20;99.90
16479;DHT22;8350;52.316;10.530;2023-02-26T11:15:37;3.30;84.40
16479;DHT22;8350;52.316;10.530;2023-02-26T11:18:12;3.30;99.90
16479;DHT22;8350;52.316;10.530;2023-02-26T11:20:43;3.40;99.90
16479;DHT22;8350;52.316;10.530;2023-02-26T11:23:16;3.50;99.90
16479;DHT22;8350;52.316;10.530;2023-02-26T11:25:44;3.60;1.00
16479;DHT22;8350;52.316;10.530;2023-02-26T11:28:23;3.50;1.00
16479;DHT22;8350;52.316;10.530;2023-02-26T11:30:52;3.60;99.90
16479;DHT22;8350;52.316;10.530;2023-02-26T11:33:23;3.70;1.00
16479;DHT22;8350;52.316;10.530;2023-02-26T11:35:55;3.60;99.90
16479;DHT22;8350;52.316;10.530;2023-02-26T11:38:25;3.70;99.90
16479;DHT22;8350;52.316;10.530;2023-02-26T11:40:54;3.70;1.00
16479;DHT22;8350;52.316;10.530;2023-02-26T11:43:23;3.60;1.00
16479;DHT22;8350;52.316;10.530;2023-02-26T11:45:56;3.70;1.00
16479;DHT22;8350;52.316;10.530;2023-02-26T11:48:31;4.00;1.00
16479;DHT22;8350;52.316;10.530;2023-02-26T11:51:02;4.00;99.90
16479;DHT22;8350;52.316;10.530;2023-02-26T11:53:34;3.80;1.00
16479;DHT22;8350;52.316;10.530;2023-02-26T11:56:09;3.90;1.00
16479;DHT22;8350;52.316;10.530;2023-02-26T11:58:39;4.10;99.90
16479;DHT22;8350;52.316;10.530;2023-02-26T12:01:10;4.30;1.00
16479;DHT22;8350;52.316;10.530;2023-02-26T12:03:39;3.90;99.90
16479;DHT22;8350;52.316;10.530;2023-02-26T12:06:15;3.60;1.00
16479;DHT22;8350;52.316;10.530;2023-02-26T12:08:43;3.60;1.00
16479;DHT22;8350;52.316;10.530;2023-02-26T12:11:26;3.80;1.00
16479;DHT22;8350;52.316;10.530;2023-02-26T12:14:04;4.00;1.00
16479;DHT22;8350;52.316;10.530;2023-02-26T12:16:41;4.20;1.00
16479;DHT22;8350;52.316;10.530;2023-02-26T12:19:16;4.30;99.90
16479;DHT22;8350;52.316;10.530;2023-02-26T12:22:19;4.30;1.00
16479;DHT22;8350;52.316;10.530;2023-02-26T12:27:56;3.90;1.00
16479;DHT22;8350;52.316;10.530;2023-02-26T12:30:41;3.70;1.00
16479;DHT22;8350;52.316;10.530;2023-02-26T12:33:21;3.90;1.00
16479;DHT22;8350;52.316;10.530;2023-02-26T12:36:00;4.10;99.90
16479;DHT22;8350;52.316;10.530;2023-02-26T12:38:32;4.00;1.00
16479;DHT22;8350;52.316;10.530;2023-02-26T12:41:17;3.90;99.90
16479;DHT22;8350;52.316;10.530;2023-02-26T12:43:49;3.80;1.00
16479;DHT22;8350;52.316;10.530;2023-02-26T12:46:28;3.90;99.90
16479;DHT22;8350;52.316;10.530;2023-02-26T12:49:32;3.80;82.40
16479;DHT22;8350;52.316;10.530;2023-02-26T12:55:13;4.10;99.90
16479;DHT22;8350;52.316;10.530;2023-02-26T12:58:05;4.10;1.00
16479;DHT22;8350;52.316;10.530;2023-02-26T13:00:50;4.10;1.00
16479;DHT22;8350;52.316;10.530;2023-02-26T13:03:39;4.10;1.00
16479;DHT22;8350;52.316;10.530;2023-02-26T13:06:39;4.20;1.00
16479;DHT22;8350;52.316;10.530;2023-02-26T13:09:14;4.30;1.00
16479;DHT22;8350;52.316;10.530;2023-02-26T13:11:51;4.30;1.00
16479;DHT22;8350;52.316;10.530;2023-02-26T13:14:31;4.30;1.00
16479;DHT22;8350;52.316;10.530;2023-02-26T13:17:02;4.30;1.00
16479;DHT22;8350;52.316;10.530;2023-02-26T13:19:37;4.50;99.90
16479;DHT22;8350;52.316;10.530;2023-02-26T13:22:14;4.60;99.90
16479;DHT22;8350;52.316;10.530;2023-02-26T13:24:46;4.50;1.00
16479;DHT22;8350;52.316;10.530;2023-02-26T13:27:16;4.40;99.90
16479;DHT22;8350;52.316;10.530;2023-02-26T13:29:47;4.40;99.90
16479;DHT22;8350;52.316;10.530;2023-02-26T13:32:17;4.60;99.90
16479;DHT22;8350;52.316;10.530;2023-02-26T13:34:51;4.50;1.00
16479;DHT22;8350;52.316;10.530;2023-02-26T13:37:24;4.30;1.00
16479;DHT22;8350;52.316;10.530;2023-02-26T13:40:02;4.30;99.90
16479;DHT22;8350;52.316;10.530;2023-02-26T13:42:37;4.40;1.00
16479;DHT22;8350;52.316;10.530;2023-02-26T13:45:28;4.50;99.90
16479;DHT22;8350;52.316;10.530;2023-02-26T13:48:14;4.40;99.90
16479;DHT22;8350;52.316;10.530;2023-02-26T13:50:49;4.30;99.90
16479;DHT22;8350;52.316;10.530;2023-02-26T13:53:54;4.40;1.00
16479;DHT22;8350;52.316;10.530;2023-02-26T13:56:41;4.20;99.90
16479;DHT22;8350;52.316;10.530;2023-02-26T13:59:47;4.10;1.00
16479;DHT22;8350;52.316;10.530;2023-02-26T14:02:45;4.10;1.00
16479;DHT22;8350;52.316;10.530;2023-02-26T14:05:51;4.30;1.00
16479;DHT22;8350;52.316;10.530;2023-02-26T14:11:44;4.40;99.90
16479;DHT22;8350;52.316;10.530;2023-02-26T14:14:33;4.30;99.90
16479;DHT22;8350;52.316;10.530;2023-02-26T14:17:26;4.30;99.90
16479;DHT22;8350;52.316;10.530;2023-02-26T14:20:20;4.40;99.90
16479;DHT22;8350;52.316;10.530;2023-02-26T14:22:51;4.40;99.90
16479;DHT22;8350;52.316;10.530;2023-02-26T14:25:21;4.20;1.00
16479;DHT22;8350;52.316;10.530;2023-02-26T14:28:18;4.10;99.90
16479;DHT22;8350;52.316;10.530;2023-02-26T14:30:48;4.00;1.00
16479;DHT22;8350;52.316;10.530;2023-02-26T14:33:17;4.00;99.90
16479;DHT22;8350;52.316;10.530;2023-02-26T14:35:47;4.00;95.30
16479;DHT22;8350;52.316;10.530;2023-02-26T14:38:20;4.10;1.00
16479;DHT22;8350;52.316;10.530;2023-02-26T14:40:49;4.20;1.00
16479;DHT22;8350;52.316;10.530;2023-02-26T14:43:33;4.10;1.00
16479;DHT22;8350;52.316;10.530;2023-02-26T14:46:01;4.30;99.90
16479;DHT22;8350;52.316;10.530;2023-02-26T14:48:29;4.40;99.90
16479;DHT22;8350;52.316;10.530;2023-02-26T14:51:05;4.50;1.00
16479;DHT22;8350;52.316;10.530;2023-02-26T14:54:00;4.60;1.00
16479;DHT22;8350;52.316;10.530;2023-02-26T14:56:38;4.50;99.90
16479;DHT22;8350;52.316;10.530;2023-02-26T14:59:29;4.00;99.90
16479;DHT22;8350;52.316;10.530;2023-02-26T15:02:08;3.80;1.00
16479;DHT22;8350;52.316;10.530;2023-02-26T15:05:00;3.80;99.90
16479;DHT22;8350;52.316;10.530;2023-02-26T15:07:39;3.90;99.90
16479;DHT22;8350;52.316;10.530;2023-02-26T15:10:21;3.80;1.00
16479;DHT22;8350;52.316;10.530;2023-02-26T15:13:21;3.90;29.90
16479;DHT22;8350;52.316;10.530;2023-02-26T15:15:56;4.00;1.00
16479;DHT22;8350;52.316;10.530;2023-02-26T15:21:25;4.00;99.90
16479;DHT22;8350;52.316;10.530;2023-02-26T15:23:57;3.90;1.00
16479;DHT22;8350;52.316;10.530;2023-02-26T15:26:26;3.80;1.00
16479;DHT22;8350;52.316;10.530;2023-02-26T15:28:55;3.70;13.20
16479;DHT22;8350;52.316;10.530;2023-02-26T15:31:32;3.70;1.00
16479;DHT22;8350;52.316;10.530;2023-02-26T15:34:00;3.60;1.00
16479;DHT22;8350;52.316;10.530;2023-02-26T15:36:29;3.50;35.70
16479;DHT22;8350;52.316;10.530;2023-02-26T15:38:58;3.50;1.00
16479;DHT22;8350;52.316;10.530;2023-02-26T15:41:28;3.50;1.00
16479;DHT22;8350;52.316;10.530;2023-02-26T15:44:00;3.50;99.90
16479;DHT22;8350;52.316;10.530;2023-02-26T15:46:31;3.50;1.00
16479;DHT22;8350;52.316;10.530;2023-02-26T15:49:03;3.60;1.00
16479;DHT22;8350;52.316;10.530;2023-02-26T15:51:31;3.60;1.00
16479;DHT22;8350;52.316;10.530;2023-02-26T15:53:59;3.60;99.90
16479;DHT22;8350;52.316;10.530;2023-02-26T15:56:32;3.60;9.00
16479;DHT22;8350;52.316;10.530;2023-02-26T15:59:03;3.60;99.90
16479;DHT22;8350;52.316;10.530;2023-02-26T16:01:32;3.50;5.40
16479;DHT22;8350;52.316;10.530;2023-02-26T16:04:02;3.50;99.90
16479;DHT22;8350;52.316;10.530;2023-02-26T16:06:31;3.50;1.00
16479;DHT22;8350;52.316;10.530;2023-02-26T16:09:00;3.40;1.00
16479;DHT22;8350;52.316;10.530;2023-02-26T16:11:30;3.40;1.00
16479;DHT22;8350;52.316;10.530;2023-02-26T16:13:59;3.40;78.50
16479;DHT22;8350;52.316;10.530;2023-02-26T16:16:28;3.40;99.90
16479;DHT22;8350;52.316;10.530;2023-02-26T16:19:00;3.30;1.00
16479;DHT22;8350;52.316;10.530;2023-02-26T16:21:30;3.30;99.90
16479;DHT22;8350;52.316;10.530;2023-02-26T16:23:58;3.20;99.90
16479;DHT22;8350;52.316;10.530;2023-02-26T16:26:30;3.10;99.90
16479;DHT22;8350;52.316;10.530;2023-02-26T16:29:03;3.10;99.90
16479;DHT22;8350;52.316;10.530;2023-02-26T16:31:32;3.10;99.90
16479;DHT22;8350;52.316;10.530;2023-02-26T16:34:04;3.00;99.90
16479;DHT22;8350;52.316;10.530;2023-02-26T16:36:39;3.10;1.00